createdAt,value
2022-12-23T00:21:43.797Z,14.05
2022-12-23T00:24:12.226Z,15.32
2022-12-23T00:26:40.332Z,18.15
2022-12-23T00:29:07.694Z,17.17
2022-12-23T00:31:35.188Z,14.63
2022-12-23T00:34:02.536Z,14.80
2022-12-23T00:36:30.812Z,14.77
2022-12-23T00:39:17.067Z,15.15
2022-12-23T00:42:03.344Z,16.50
2022-12-23T00:44:32.043Z,14.07
2022-12-23T00:46:59.334Z,14.50
2022-12-23T00:49:45.205Z,15.00
2022-12-23T00:52:15.647Z,16.02
2022-12-23T00:54:43.155Z,14.65
2022-12-23T00:57:10.578Z,15.27
2022-12-23T00:59:37.887Z,15.35
2022-12-23T01:02:24.084Z,14.32
2022-12-23T01:05:10.214Z,14.32
2022-12-23T01:07:37.512Z,15.13
2022-12-23T01:10:04.921Z,12.27
2022-12-23T01:12:32.146Z,13.82
2022-12-23T01:14:59.521Z,14.70
2022-12-23T01:17:27.011Z,13.82
2022-12-23T01:19:54.902Z,12.60
2022-12-23T01:22:22.199Z,13.82
2022-12-23T01:24:49.487Z,12.88
2022-12-23T01:27:17.102Z,12.90
2022-12-23T01:29:44.471Z,13.60
2022-12-23T01:32:11.811Z,12.48
2022-12-23T01:34:39.034Z,14.30
2022-12-23T01:37:06.351Z,13.85
2022-12-23T01:39:33.806Z,14.98
2022-12-23T01:42:19.789Z,13.77
2022-12-23T01:45:00.904Z,15.18
2022-12-23T01:47:40.737Z,15.20
2022-12-23T01:50:21.921Z,14.23
2022-12-23T01:52:55.520Z,14.18
2022-12-23T01:55:25.017Z,14.13
2022-12-23T01:57:53.864Z,16.05
2022-12-23T02:03:26.900Z,14.45
2022-12-23T02:06:14.457Z,14.02
2022-12-23T02:09:00.634Z,15.05
2022-12-23T02:11:43.000Z,13.60
2022-12-23T02:14:32.173Z,14.30
2022-12-23T02:17:08.351Z,15.32
2022-12-23T02:19:35.667Z,14.23
2022-12-23T02:22:12.629Z,14.98
2022-12-23T02:24:42.884Z,13.40
2022-12-23T02:27:18.031Z,14.20
2022-12-23T02:29:48.355Z,13.25
2022-12-23T02:32:37.150Z,15.85
2022-12-23T02:35:04.472Z,14.07
2022-12-23T02:37:37.174Z,14.38
2022-12-23T02:40:10.596Z,11.77
2022-12-23T02:42:42.722Z,12.40
2022-12-23T02:45:15.175Z,13.60
2022-12-23T02:47:47.255Z,12.07
2022-12-23T02:50:24.483Z,12.27
2022-12-23T02:52:53.292Z,12.05
2022-12-23T02:55:22.505Z,11.25
2022-12-23T02:57:50.553Z,11.27
2022-12-23T03:00:18.498Z,11.85
2022-12-23T03:02:46.134Z,14.15
2022-12-23T03:05:32.000Z,11.73
2022-12-23T03:08:02.702Z,11.40
2022-12-23T03:10:30.005Z,11.90
2022-12-23T03:13:09.373Z,12.25
2022-12-23T03:18:22.687Z,14.02
2022-12-23T03:20:53.544Z,13.73
2022-12-23T03:23:24.241Z,12.75
2022-12-23T03:25:59.009Z,14.05
2022-12-23T03:28:26.306Z,13.50
2022-12-23T03:30:55.162Z,13.75
2022-12-23T03:33:24.788Z,14.02
2022-12-23T03:36:01.115Z,14.75
2022-12-23T03:38:29.041Z,15.95
2022-12-23T03:41:03.358Z,14.40
2022-12-23T03:43:36.084Z,13.18
2022-12-23T03:46:07.990Z,16.27
2022-12-23T03:48:49.688Z,14.02
2022-12-23T03:51:23.374Z,12.98
2022-12-23T03:53:53.460Z,14.65
2022-12-23T03:56:25.174Z,13.30
2022-12-23T03:58:55.415Z,13.43
2022-12-23T04:01:25.684Z,14.95
2022-12-23T04:04:12.136Z,14.80
2022-12-23T04:06:46.184Z,14.88
2022-12-23T04:09:21.878Z,16.15
2022-12-23T04:11:50.047Z,14.80
2022-12-23T04:14:18.613Z,16.00
2022-12-23T04:16:47.221Z,15.57
2022-12-23T04:19:14.587Z,14.93
2022-12-23T04:21:41.889Z,14.93
2022-12-23T04:24:09.223Z,16.05
2022-12-23T04:26:36.441Z,14.00
2022-12-23T04:29:03.837Z,13.25
2022-12-23T04:31:31.153Z,13.75
2022-12-23T04:33:58.500Z,14.05
2022-12-23T04:36:25.720Z,14.23
2022-12-23T04:38:52.934Z,13.63
2022-12-23T04:41:20.138Z,13.35
2022-12-23T04:43:52.726Z,12.65
2022-12-23T04:46:20.946Z,13.30
2022-12-23T04:48:48.227Z,11.00
2022-12-23T04:51:15.453Z,12.07
2022-12-23T04:53:42.721Z,11.40
2022-12-23T04:56:10.221Z,11.27
2022-12-23T04:58:37.472Z,12.43
2022-12-23T05:01:05.939Z,13.55
2022-12-23T05:03:33.509Z,13.48
2022-12-23T05:06:01.256Z,12.32
2022-12-23T05:08:28.557Z,12.80
2022-12-23T05:10:56.179Z,12.88
2022-12-23T05:13:23.737Z,12.30
2022-12-23T05:15:52.103Z,11.50
2022-12-23T05:18:19.773Z,13.70
2022-12-23T05:20:47.158Z,12.52
2022-12-23T05:23:14.390Z,13.25
2022-12-23T05:25:41.774Z,13.18
2022-12-23T05:28:09.613Z,12.07
2022-12-23T05:30:37.046Z,13.52
2022-12-23T05:33:07.150Z,15.13
2022-12-23T05:35:34.559Z,14.43
2022-12-23T05:38:03.347Z,15.43
2022-12-23T05:40:31.638Z,15.65
2022-12-23T05:43:00.103Z,18.63
2022-12-23T05:45:30.714Z,17.00
2022-12-23T05:47:57.997Z,15.93
2022-12-23T05:50:25.276Z,16.50
2022-12-23T05:52:52.776Z,17.38
2022-12-23T05:55:20.110Z,17.48
2022-12-23T05:57:47.368Z,16.55
2022-12-23T06:00:15.297Z,19.85
2022-12-23T06:02:44.385Z,19.48
2022-12-23T06:05:14.627Z,17.42
2022-12-23T06:07:41.951Z,16.33
2022-12-23T06:10:10.236Z,17.80
2022-12-23T06:12:37.646Z,18.80
2022-12-23T06:15:05.502Z,18.77
2022-12-23T06:17:32.877Z,18.17
2022-12-23T06:20:00.261Z,17.77
2022-12-23T06:22:27.520Z,16.38
2022-12-23T06:24:55.023Z,16.67
2022-12-23T06:27:22.384Z,19.50
2022-12-23T06:29:49.754Z,18.25
2022-12-23T06:32:17.131Z,18.83
2022-12-23T06:34:44.613Z,19.42
2022-12-23T06:37:12.635Z,17.88
2022-12-23T06:39:39.902Z,17.85
2022-12-23T06:42:07.172Z,18.20
2022-12-23T06:44:34.462Z,17.17
2022-12-23T06:47:01.718Z,15.98
2022-12-23T06:49:28.996Z,17.98
2022-12-23T06:51:56.283Z,17.20
2022-12-23T06:54:23.645Z,18.23
2022-12-23T06:56:50.928Z,16.73
2022-12-23T06:59:18.179Z,18.38
2022-12-23T07:01:48.060Z,16.00
2022-12-23T07:04:15.327Z,16.92
2022-12-23T07:06:44.084Z,17.15
2022-12-23T07:09:12.838Z,14.98
2022-12-23T07:11:42.988Z,16.40
2022-12-23T07:16:37.516Z,16.08
2022-12-23T07:19:04.933Z,15.40
2022-12-23T07:21:32.256Z,17.30
2022-12-23T07:23:59.529Z,18.08
2022-12-23T07:26:27.125Z,16.48
2022-12-23T07:28:54.428Z,15.63
2022-12-23T07:31:24.958Z,15.93
2022-12-23T07:33:52.554Z,18.85
2022-12-23T07:36:19.962Z,15.68
2022-12-23T07:38:50.637Z,21.02
2022-12-23T07:41:20.207Z,18.00
2022-12-23T07:43:50.085Z,17.17
2022-12-23T07:46:17.416Z,17.95
2022-12-23T07:48:44.770Z,20.45
2022-12-23T07:51:11.958Z,20.40
2022-12-23T07:53:39.292Z,20.02
2022-12-23T07:56:09.211Z,19.77
2022-12-23T07:58:36.543Z,19.98
2022-12-23T08:01:07.728Z,16.85
2022-12-23T08:03:35.194Z,19.73
2022-12-23T08:06:03.641Z,20.70
2022-12-23T08:08:31.126Z,19.25
2022-12-23T08:10:59.789Z,19.63
2022-12-23T08:13:27.373Z,20.75
2022-12-23T08:15:56.033Z,20.15
2022-12-23T08:18:23.684Z,19.77
2022-12-23T08:20:58.284Z,21.60
2022-12-23T08:23:26.250Z,20.77
2022-12-23T08:26:06.840Z,21.60
2022-12-23T08:28:34.291Z,22.15
2022-12-23T08:31:08.945Z,23.48
2022-12-23T08:33:38.126Z,21.85
2022-12-23T08:36:06.493Z,23.00
2022-12-23T08:38:37.314Z,22.83
2022-12-23T08:41:04.655Z,22.25
2022-12-23T08:43:35.836Z,24.77
2022-12-23T08:46:04.114Z,25.48
2022-12-23T08:48:31.774Z,24.05
2022-12-23T08:51:02.946Z,25.40
2022-12-23T08:53:32.759Z,23.83
2022-12-23T08:56:03.868Z,26.25
2022-12-23T08:58:31.611Z,25.08
2022-12-23T09:00:59.045Z,28.02
2022-12-23T09:03:26.546Z,29.20
2022-12-23T09:05:54.370Z,29.77
2022-12-23T09:08:21.665Z,28.02
2022-12-23T09:10:49.052Z,33.50
2022-12-23T09:13:26.240Z,31.13
2022-12-23T09:15:58.386Z,32.08
2022-12-23T09:18:25.816Z,31.33
2022-12-23T09:21:00.447Z,28.42
2022-12-23T09:23:28.033Z,27.77
2022-12-23T09:25:58.476Z,27.08
2022-12-23T09:28:26.977Z,28.67
2022-12-23T09:30:54.345Z,29.52
2022-12-23T09:33:21.994Z,27.40
2022-12-23T09:35:52.399Z,30.58
2022-12-23T09:38:19.781Z,29.25
2022-12-23T09:40:47.175Z,30.50
2022-12-23T09:43:20.205Z,27.95
2022-12-23T09:45:56.569Z,25.15
2022-12-23T09:48:26.628Z,23.08
2022-12-23T09:50:54.473Z,23.92
2022-12-23T09:53:23.225Z,22.85
2022-12-23T09:56:00.877Z,22.85
2022-12-23T09:58:35.119Z,22.05
2022-12-23T10:01:11.860Z,23.23
2022-12-23T10:03:59.947Z,24.63
2022-12-23T10:06:28.847Z,23.77
2022-12-23T10:09:01.024Z,25.33
2022-12-23T10:11:49.657Z,25.05
2022-12-23T10:14:20.356Z,21.88
2022-12-23T10:16:56.115Z,20.83
2022-12-23T10:19:31.199Z,20.55
2022-12-23T10:22:06.255Z,18.48
2022-12-23T10:24:33.517Z,19.55
2022-12-23T10:27:02.257Z,19.90
2022-12-23T10:29:33.504Z,22.42
2022-12-23T10:32:14.387Z,16.55
2022-12-23T10:34:57.886Z,18.48
2022-12-23T10:37:28.164Z,16.88
2022-12-23T10:39:55.417Z,18.23
2022-12-23T10:42:43.017Z,16.80
2022-12-23T10:45:10.392Z,18.92
2022-12-23T10:48:16.447Z,17.08
2022-12-23T10:50:46.115Z,17.73
2022-12-23T10:53:15.589Z,18.60
2022-12-23T10:58:15.519Z,21.35
2022-12-23T11:00:45.747Z,21.80
2022-12-23T11:03:24.356Z,23.52
2022-12-23T11:05:53.348Z,17.90
2022-12-23T11:08:24.024Z,23.40
2022-12-23T11:10:51.267Z,23.83
2022-12-23T11:13:37.499Z,23.20
2022-12-23T11:16:15.615Z,27.55
2022-12-23T11:19:03.156Z,26.65
2022-12-23T11:21:31.343Z,28.25
2022-12-23T11:24:07.731Z,25.95
2022-12-23T11:26:35.329Z,27.85
2022-12-23T11:29:06.936Z,27.92
2022-12-23T11:31:36.568Z,28.33
2022-12-23T11:34:14.229Z,31.30
2022-12-23T11:36:41.962Z,32.53
2022-12-23T11:39:15.141Z,29.33
2022-12-23T11:41:47.836Z,32.60
2022-12-23T11:44:15.120Z,29.52
2022-12-23T11:46:42.381Z,33.15
2022-12-23T11:49:15.485Z,34.60
2022-12-23T11:51:43.659Z,31.13
2022-12-23T11:54:16.252Z,31.17
2022-12-23T11:56:43.884Z,33.17
2022-12-23T11:59:29.665Z,31.13
2022-12-23T12:02:06.230Z,31.88
2022-12-23T12:04:35.401Z,33.05
2022-12-23T12:07:04.157Z,32.28
2022-12-23T12:09:32.395Z,33.95
2022-12-23T12:11:59.787Z,33.80
2022-12-23T12:14:31.713Z,34.65
2022-12-23T12:17:17.488Z,37.42
2022-12-23T12:20:06.016Z,36.67
2022-12-23T12:22:36.915Z,33.87
2022-12-23T12:25:10.014Z,33.42
2022-12-23T12:27:39.310Z,35.08
2022-12-23T12:30:09.002Z,33.08
2022-12-23T12:32:42.573Z,32.78
2022-12-23T12:35:15.916Z,36.13
2022-12-23T12:37:53.626Z,34.13
2022-12-23T12:40:31.549Z,34.35
2022-12-23T12:43:02.818Z,34.72
2022-12-23T12:45:39.224Z,32.60
2022-12-23T12:48:25.396Z,34.65
2022-12-23T12:51:01.931Z,36.25
2022-12-23T12:53:31.071Z,32.35
2022-12-23T12:56:01.422Z,36.50
2022-12-23T12:58:28.834Z,34.13
2022-12-23T13:01:14.947Z,37.50
2022-12-23T13:04:00.366Z,36.20
2022-12-23T13:06:33.109Z,36.10
2022-12-23T13:09:06.531Z,32.95
2022-12-23T13:11:45.513Z,34.88
2022-12-23T13:14:24.473Z,39.33
2022-12-23T13:17:03.598Z,39.22
2022-12-23T13:19:51.145Z,37.97
2022-12-23T13:22:20.278Z,34.08
2022-12-23T13:25:01.518Z,31.02
2022-12-23T13:27:34.910Z,34.15
2022-12-23T13:30:23.675Z,31.40
2022-12-23T13:33:00.825Z,23.90
2022-12-23T13:35:46.443Z,32.63
2022-12-23T13:38:40.243Z,28.48
2022-12-23T13:41:15.414Z,31.08
2022-12-23T13:43:42.665Z,27.92
2022-12-23T13:46:19.385Z,31.83
2022-12-23T13:49:01.160Z,30.73
2022-12-23T13:51:28.402Z,30.65
2022-12-23T13:54:04.126Z,32.38
2022-12-23T13:56:59.540Z,27.70
2022-12-23T13:59:37.874Z,29.15
2022-12-23T14:02:25.217Z,26.98
2022-12-23T14:04:59.987Z,26.75
2022-12-23T14:07:28.151Z,24.40
2022-12-23T14:09:56.835Z,26.05
2022-12-23T14:12:31.287Z,24.67
2022-12-23T14:14:58.517Z,22.83
2022-12-23T14:17:35.968Z,26.48
2022-12-23T14:20:08.118Z,26.60
2022-12-23T14:22:38.534Z,26.23
2022-12-23T14:25:24.628Z,26.85
2022-12-23T14:27:56.425Z,25.52
2022-12-23T14:30:23.657Z,26.33
2022-12-23T14:32:52.528Z,29.40
2022-12-23T14:35:19.946Z,33.67
2022-12-23T14:38:08.817Z,23.05
2022-12-23T14:40:38.967Z,28.30
2022-12-23T14:43:27.370Z,20.80
2022-12-23T14:45:55.849Z,19.95
2022-12-23T14:48:35.340Z,23.67
2022-12-23T14:53:34.106Z,24.90
2022-12-23T14:56:13.117Z,20.15
2022-12-23T14:58:54.394Z,23.45
2022-12-23T15:01:24.797Z,20.33
2022-12-23T15:03:59.235Z,21.20
2022-12-23T15:06:42.563Z,20.45
2022-12-23T15:09:17.183Z,17.95
2022-12-23T15:11:44.610Z,21.80
2022-12-23T15:14:16.267Z,19.85
2022-12-23T15:16:45.256Z,20.58
2022-12-23T15:19:32.798Z,20.10
2022-12-23T15:22:22.307Z,20.70
2022-12-23T15:24:51.399Z,17.05
2022-12-23T15:27:29.315Z,20.00
2022-12-23T15:29:59.025Z,17.77
2022-12-23T15:32:26.961Z,16.98
2022-12-23T15:34:57.391Z,18.25
2022-12-23T15:37:28.318Z,18.17
2022-12-23T15:40:04.509Z,19.60
2022-12-23T15:42:38.541Z,17.08
2022-12-23T15:45:35.530Z,22.40
2022-12-23T15:48:04.119Z,22.23
2022-12-23T15:50:40.426Z,22.00
2022-12-23T15:53:10.394Z,18.08
2022-12-23T15:55:41.386Z,17.87
2022-12-23T15:58:15.471Z,18.67
2022-12-23T16:00:51.155Z,19.58
2022-12-23T16:03:33.567Z,16.33
2022-12-23T16:06:19.492Z,20.15
2022-12-23T16:08:55.724Z,16.92
2022-12-23T16:11:23.133Z,17.73
2022-12-23T16:14:01.808Z,19.10
2022-12-23T16:16:29.132Z,20.95
2022-12-23T16:18:56.487Z,27.05
2022-12-23T16:21:25.042Z,21.92
2022-12-23T16:23:53.248Z,21.53
2022-12-23T16:26:21.499Z,18.83
2022-12-23T16:28:50.143Z,20.67
2022-12-23T16:31:18.669Z,22.45
2022-12-23T16:33:48.873Z,25.37
2022-12-23T16:36:25.578Z,24.33
2022-12-23T16:38:55.413Z,22.40
2022-12-23T16:41:22.960Z,25.67
2022-12-23T16:43:52.622Z,26.52
2022-12-23T16:46:21.615Z,21.70
2022-12-23T16:48:53.513Z,19.50
2022-12-23T16:51:23.628Z,20.77
2022-12-23T16:53:51.629Z,19.20
2022-12-23T16:56:20.221Z,21.00
2022-12-23T16:58:47.537Z,20.93
2022-12-23T17:01:15.798Z,18.70
2022-12-23T17:03:43.196Z,21.08
2022-12-23T17:06:14.282Z,24.85
2022-12-23T17:08:41.984Z,23.20
2022-12-23T17:11:16.957Z,23.13
2022-12-23T17:13:44.712Z,20.13
2022-12-23T17:16:22.032Z,19.55
2022-12-23T17:18:50.224Z,19.80
2022-12-23T17:21:29.014Z,23.33
2022-12-23T17:23:59.819Z,24.35
2022-12-23T17:26:27.207Z,22.83
2022-12-23T17:28:54.509Z,23.20
2022-12-23T17:31:26.637Z,29.75
2022-12-23T17:33:55.236Z,23.95
2022-12-23T17:36:23.063Z,23.67
2022-12-23T17:38:50.457Z,24.70
2022-12-23T17:41:26.345Z,24.10
2022-12-23T17:43:53.792Z,23.50
2022-12-23T17:46:21.146Z,24.58
2022-12-23T17:48:48.523Z,26.30
2022-12-23T17:51:19.109Z,25.25
2022-12-23T17:53:47.494Z,26.35
2022-12-23T17:56:20.685Z,22.42
2022-12-23T17:58:49.344Z,19.25
2022-12-23T18:01:17.130Z,19.58
2022-12-23T18:03:44.455Z,15.93
2022-12-23T18:06:14.091Z,11.77
2022-12-23T18:08:41.915Z,8.48
2022-12-23T18:11:09.826Z,9.05
2022-12-23T18:13:37.257Z,6.90
2022-12-23T18:16:05.966Z,13.30
2022-12-23T18:18:45.523Z,9.13
2022-12-23T18:21:20.741Z,5.70
2022-12-23T18:23:48.285Z,7.10
2022-12-23T18:26:16.166Z,8.73
2022-12-23T18:28:44.610Z,7.40
2022-12-23T18:31:19.494Z,8.43
2022-12-23T18:33:48.035Z,7.97
2022-12-23T18:36:26.329Z,7.97
2022-12-23T18:38:54.156Z,9.02
2022-12-23T18:41:22.616Z,7.03
2022-12-23T18:43:50.461Z,7.77
2022-12-23T18:46:19.981Z,7.65
2022-12-23T18:48:54.294Z,7.97
2022-12-23T18:51:27.579Z,7.57
2022-12-23T18:53:55.047Z,6.95
2022-12-23T18:56:24.013Z,8.77
2022-12-23T18:58:51.303Z,9.52
2022-12-23T19:01:19.485Z,10.45
2022-12-23T19:03:47.756Z,11.55
2022-12-23T19:06:15.624Z,12.55
2022-12-23T19:08:44.017Z,12.70
2022-12-23T19:11:15.924Z,13.13
2022-12-23T19:13:43.618Z,14.13
2022-12-23T19:16:18.564Z,12.35
2022-12-23T19:18:46.687Z,19.05
2022-12-23T19:21:14.409Z,15.57
2022-12-23T19:23:41.952Z,13.18
2022-12-23T19:26:10.299Z,12.32
2022-12-23T19:28:38.171Z,12.75
2022-12-23T19:31:09.538Z,10.82
2022-12-23T19:33:37.748Z,13.25
2022-12-23T19:36:11.374Z,11.93
2022-12-23T19:38:38.994Z,13.45
2022-12-23T19:41:07.824Z,10.18
2022-12-23T19:43:35.613Z,9.85
2022-12-23T19:46:06.341Z,13.05
2022-12-23T19:48:34.273Z,12.82
2022-12-23T19:51:02.636Z,12.73
2022-12-23T19:53:30.191Z,9.43
2022-12-23T19:56:08.368Z,10.52
2022-12-23T19:58:36.595Z,10.93
2022-12-23T20:01:12.430Z,10.85
2022-12-23T20:03:40.139Z,8.73
2022-12-23T20:06:08.365Z,6.30
2022-12-23T20:08:35.691Z,9.13
2022-12-23T20:11:09.761Z,9.90
2022-12-23T20:13:37.662Z,8.65
2022-12-23T20:16:05.989Z,10.55
2022-12-23T20:18:33.498Z,7.80
2022-12-23T20:21:01.111Z,8.73
2022-12-23T20:23:29.115Z,7.07
2022-12-23T20:25:56.616Z,7.22
2022-12-23T20:28:24.173Z,8.73
2022-12-23T20:31:01.889Z,6.93
2022-12-23T20:33:29.326Z,8.00
2022-12-23T20:35:56.912Z,6.80
2022-12-23T20:38:24.196Z,7.10
2022-12-23T20:40:51.477Z,6.22
2022-12-23T20:43:18.684Z,6.90
2022-12-23T20:45:46.411Z,6.60
2022-12-23T20:48:13.675Z,6.70
2022-12-23T20:50:41.237Z,6.35
2022-12-23T20:53:09.315Z,5.82
2022-12-23T20:55:36.840Z,5.80
2022-12-23T20:58:24.048Z,5.32
2022-12-23T21:00:51.459Z,6.50
2022-12-23T21:03:18.914Z,9.13
2022-12-23T21:05:46.368Z,6.20
2022-12-23T21:08:13.721Z,6.80
2022-12-23T21:10:41.148Z,7.30
2022-12-23T21:13:08.486Z,6.30
2022-12-23T21:15:35.808Z,6.00
2022-12-23T21:18:03.271Z,4.70
2022-12-23T21:20:30.541Z,6.32
2022-12-23T21:22:57.992Z,6.53
2022-12-23T21:25:25.274Z,5.47
2022-12-23T21:27:52.735Z,5.15
2022-12-23T21:30:20.242Z,6.03
2022-12-23T21:32:50.067Z,5.90
2022-12-23T21:35:17.355Z,6.93
2022-12-23T21:37:44.681Z,6.35
2022-12-23T21:40:12.260Z,7.10
2022-12-23T21:42:39.573Z,5.75
2022-12-23T21:45:08.129Z,5.63
2022-12-23T21:47:35.492Z,5.20
2022-12-23T21:50:02.881Z,7.05
2022-12-23T21:52:30.180Z,6.35
2022-12-23T21:54:57.744Z,4.97
2022-12-23T21:57:25.064Z,6.75
2022-12-23T21:59:52.285Z,7.15
2022-12-23T22:02:19.698Z,5.95
2022-12-23T22:04:48.382Z,9.07
2022-12-23T22:07:15.950Z,5.85
2022-12-23T22:09:43.202Z,6.90
2022-12-23T22:12:10.495Z,6.40
2022-12-23T22:14:37.882Z,6.20
2022-12-23T22:17:05.138Z,6.03
2022-12-23T22:19:32.428Z,6.55
2022-12-23T22:21:59.644Z,6.55
2022-12-23T22:24:26.948Z,7.20
2022-12-23T22:26:54.310Z,7.05
2022-12-23T22:29:21.639Z,9.00
2022-12-23T22:31:51.187Z,5.15
2022-12-23T22:34:20.000Z,7.28
2022-12-23T22:36:47.932Z,4.30
2022-12-23T22:39:20.110Z,7.22
2022-12-23T22:41:48.801Z,6.53
2022-12-23T22:44:16.460Z,5.53
2022-12-23T22:46:43.850Z,5.70
2022-12-23T22:49:14.971Z,8.10
2022-12-23T22:51:43.340Z,6.15
2022-12-23T22:54:10.540Z,5.97
2022-12-23T22:56:39.190Z,5.30
2022-12-23T22:59:06.744Z,4.22
2022-12-23T23:01:36.294Z,6.22
2022-12-23T23:04:04.274Z,5.82
2022-12-23T23:06:33.614Z,8.70
2022-12-23T23:11:28.184Z,7.10
2022-12-23T23:13:55.763Z,7.72
2022-12-23T23:16:23.682Z,6.55
2022-12-23T23:18:51.563Z,6.00
2022-12-23T23:21:19.123Z,6.22
2022-12-23T23:23:48.463Z,8.85
2022-12-23T23:26:15.930Z,6.82
2022-12-23T23:28:43.634Z,6.75
2022-12-23T23:33:58.758Z,6.50
2022-12-23T23:36:26.083Z,6.45
2022-12-23T23:38:53.355Z,5.90
2022-12-23T23:41:23.314Z,5.03
2022-12-23T23:43:51.348Z,5.30
2022-12-23T23:46:21.571Z,6.22
2022-12-23T23:48:48.912Z,7.60
2022-12-23T23:51:19.396Z,5.00
2022-12-23T23:53:49.815Z,5.93
2022-12-23T23:56:21.970Z,6.53
2022-12-23T23:58:52.209Z,6.20
